F/V Cote D'ambre — FPEY — position and weather

sailwx.info

Track history (hours):
 
Tides and Currents Weather Stations Pressure Air Temp Water Temp Dewpoint Dewpoint Depression Visibility Wind Speed Wind Dir Waves Ship Positions

F/V Cote D'ambre

Last reported at 2017-Jun-26 11:40 UTC. Time now 2017-Jun-27 08:55 UTC.
Position N 47°44' W 003°22'.

Length 16 m; draft 4 m.

Type: Fishing. MMSI: 227128800.

Date/timePositionNaut miles runAvg speedWind from/ knotsBaromVisibWave heightAir tempDewpointWater temp
2017-Jun-26 11:40N 47°44' W 003°22'0 0.0
2017-Jun-26 11:28N 47°44' W 003°22'0 0.0
2017-Jun-26 10:58N 47°44' W 003°22'0 0.3
2017-Jun-26 10:28N 47°44' W 003°22'0 0.3
2017-Jun-26 09:58N 47°44' W 003°22'0 0.0
2017-Jun-26 09:28N 47°44' W 003°22'0 0.0
2017-Jun-26 08:58N 47°44' W 003°22'0 0.0
2017-Jun-26 08:28N 47°44' W 003°22'0 0.0
2017-Jun-26 07:59N 47°44' W 003°22'0 0.6
2017-Jun-26 07:30N 47°43' W 003°22'0 0.6
2017-Jun-26 07:01N 47°44' W 003°22'0 0.1
2017-Jun-26 06:28N 47°44' W 003°22'0 0.0
2017-Jun-26 05:58N 47°44' W 003°22'0 0.0
2017-Jun-26 05:28N 47°44' W 003°22'0 0.0
2017-Jun-26 04:58N 47°44' W 003°22'0 0.0
2017-Jun-26 04:28N 47°44' W 003°22'0 0.0
2017-Jun-26 03:58N 47°44' W 003°22'0 0.0
2017-Jun-26 03:28N 47°44' W 003°22'0 0.0
2017-Jun-26 02:58N 47°44' W 003°22'0 0.0
2017-Jun-26 02:28N 47°44' W 003°22'0 0.0
2017-Jun-26 01:58N 47°44' W 003°22'0 0.0
2017-Jun-26 01:28N 47°44' W 003°22'0 0.0
2017-Jun-26 00:58N 47°44' W 003°22'2 4.6
2017-Jun-26 00:30N 47°42' W 003°22'4 7.8
2017-Jun-26 00:00N 47°38' W 003°22'4 7.5
2017-Jun-25 23:30N 47°34' W 003°23'4 7.3
2017-Jun-25 23:00N 47°31' W 003°26'4 7.3
2017-Jun-25 22:30N 47°27' W 003°28'3 6.9
2017-Jun-25 22:00N 47°24' W 003°30'3 6.8
2017-Jun-25 21:30N 47°21' W 003°32'2 3.3
2017-Jun-25 21:00N 47°20' W 003°33'1 2.6
2017-Jun-25 20:30N 47°20' W 003°35'2 3.0
2017-Jun-25 20:00N 47°18' W 003°36'2 3.2
2017-Jun-25 19:29N 47°17' W 003°35'1 3.1
2017-Jun-25 19:00N 47°15' W 003°35'2 3.2
2017-Jun-25 18:30N 47°14' W 003°34'2 2.8
2017-Jun-25 17:55N 47°12' W 003°34'1 3.1
2017-Jun-25 17:30N 47°11' W 003°33'2 3.1
2017-Jun-25 16:58N 47°10' W 003°31'1 3.1
2017-Jun-25 16:30N 47°08' W 003°31'2 3.2
2017-Jun-25 16:00N 47°06' W 003°32'2 3.4
2017-Jun-25 15:30N 47°05' W 003°30'2 5.0
2017-Jun-25 15:00N 47°03' W 003°28'3 2.6
2017-Jun-25 13:59N 47°01' W 003°25'1 3.1
2017-Jun-25 13:30N 47°01' W 003°23'2 3.0
2017-Jun-25 13:00N 46°60' W 003°22'2 3.5
2017-Jun-25 12:30N 46°58' W 003°21'2 3.6
2017-Jun-25 12:00N 46°57' W 003°20'2 3.4
2017-Jun-25 11:30N 46°56' W 003°18'1 1.3
2017-Jun-25 10:59N 46°55' W 003°18'2 3.6
2017-Jun-25 10:30N 46°53' W 003°18'2 3.4
2017-Jun-25 09:58N 46°51' W 003°18'2 3.4
2017-Jun-25 09:30N 46°50' W 003°18'1 1.5
2017-Jun-25 09:00N 46°50' W 003°17'1 2.9
2017-Jun-25 08:29N 46°51' W 003°18'1 3.1
2017-Jun-25 08:00N 46°51' W 003°21'2 3.6
2017-Jun-25 07:30N 46°51' W 003°23'1 1.0
2017-Jun-25 07:00N 46°51' W 003°23'2 3.5
2017-Jun-25 06:26N 46°51' W 003°20'2 3.4
2017-Jun-25 05:57N 46°51' W 003°17'2 3.0
2017-Jun-25 05:22N 46°50' W 003°15'2 3.0
2017-Jun-25 04:38N 46°50' W 003°12'1 3.0
2017-Jun-25 04:17N 46°49' W 003°12'1 3.4
2017-Jun-25 04:00N 46°48' W 003°13'24 1.1
2017-Jun-24 06:17N 47°11' W 003°24'1 3.8
2017-Jun-24 06:00N 47°12' W 003°25'3 5.4
2017-Jun-24 05:30N 47°15' W 003°25'4 8.6
2017-Jun-24 05:00N 47°19' W 003°24'4 8.5
2017-Jun-24 04:30N 47°23' W 003°24'4 8.2
2017-Jun-24 04:00N 47°27' W 003°23'4 8.3
2017-Jun-24 03:30N 47°31' W 003°23'4 8.3
2017-Jun-24 03:00N 47°36' W 003°22'4 8.7
2017-Jun-24 02:30N 47°40' W 003°22'4 7.2
2017-Jun-24 01:59N 47°44' W 003°22'0 0.1
2017-Jun-24 01:29N 47°44' W 003°22'0 0.3
2017-Jun-24 00:58N 47°44' W 003°22'0 0.0
2017-Jun-24 00:26N 47°44' W 003°22'3 7.5
2017-Jun-24 00:00N 47°41' W 003°22'4 8.7
2017-Jun-23 23:30N 47°36' W 003°22'4 8.9
2017-Jun-23 23:00N 47°32' W 003°26'4 8.7
2017-Jun-23 22:30N 47°29' W 003°29'4 8.5
2017-Jun-23 22:00N 47°25' W 003°33'4 8.5
2017-Jun-23 21:30N 47°22' W 003°37'2 1.9
2017-Jun-23 20:22N 47°20' W 003°36'1 2.7
2017-Jun-23 20:00N 47°19' W 003°36'2 3.1
2017-Jun-23 19:30N 47°17' W 003°36'2 3.2
2017-Jun-23 19:01N 47°16' W 003°37'2 3.1
2017-Jun-23 18:29N 47°14' W 003°37'2 3.1
2017-Jun-23 17:58N 47°13' W 003°38'4 1.6
2017-Jun-23 15:31N 47°09' W 003°37'1 2.1
2017-Jun-23 15:02N 47°09' W 003°35'1 3.1
2017-Jun-23 14:46N 47°09' W 003°36'1 3.6
2017-Jun-23 14:23N 47°09' W 003°38'0 0.1
2017-Jun-23 12:03N 47°09' W 003°38'2 3.0
2017-Jun-23 11:29N 47°08' W 003°40'2 0.9
2017-Jun-23 09:09N 47°07' W 003°38'2 1.0
2017-Jun-23 06:35N 47°10' W 003°36'3 3.5
2017-Jun-23 05:47N 47°12' W 003°36'1 3.6
2017-Jun-23 05:29N 47°13' W 003°36'2 3.6
2017-Jun-23 05:00N 47°15' W 003°36'2 4.5
2017-Jun-23 04:30N 47°17' W 003°35'4 8.5
2017-Jun-23 04:00N 47°21' W 003°32'4 8.0
2017-Jun-23 03:30N 47°25' W 003°30'4 8.1
2017-Jun-23 03:00N 47°28' W 003°27'4 8.3
2017-Jun-23 02:30N 47°32' W 003°24'4 8.4
2017-Jun-23 02:00N 47°36' W 003°22'4 9.0
2017-Jun-23 01:30N 47°41' W 003°22'3 6.1
2017-Jun-23 01:00N 47°44' W 003°22'0 0.0
2017-Jun-23 00:30N 47°44' W 003°22'4 7.8
2017-Jun-23 00:00N 47°40' W 003°22'4 8.5
2017-Jun-22 23:30N 47°36' W 003°22'4 8.7
2017-Jun-22 23:00N 47°32' W 003°25'4 8.3
2017-Jun-22 22:30N 47°28' W 003°28'4 8.1
2017-Jun-22 22:01N 47°24' W 003°30'4 8.0
2017-Jun-22 21:30N 47°21' W 003°33'3 4.9
2017-Jun-22 20:59N 47°19' W 003°35'2 2.6
2017-Jun-22 20:24N 47°17' W 003°35'1 3.4
2017-Jun-22 20:01N 47°16' W 003°36'2 3.3
2017-Jun-22 19:29N 47°15' W 003°37'2 3.4
2017-Jun-22 19:01N 47°13' W 003°38'2 3.4
2017-Jun-22 18:30N 47°11' W 003°39'2 3.1
2017-Jun-22 18:01N 47°10' W 003°38'1 2.6
2017-Jun-22 17:29N 47°09' W 003°38'1 2.5
2017-Jun-22 17:00N 47°09' W 003°40'2 3.3
2017-Jun-22 16:30N 47°09' W 003°42'1 2.5
2017-Jun-22 16:00N 47°08' W 003°41'2 3.3
2017-Jun-22 15:30N 47°07' W 003°39'1 2.9
2017-Jun-22 15:00N 47°08' W 003°37'1 3.0
2017-Jun-22 14:30N 47°09' W 003°39'2 0.8
2017-Jun-22 12:25N 47°08' W 003°39'2 3.4
2017-Jun-22 11:53N 47°09' W 003°39'1 3.7
2017-Jun-22 11:30N 47°10' W 003°41'2 2.8
2017-Jun-22 10:57N 47°08' W 003°43'1 1.8
2017-Jun-22 10:30N 47°08' W 003°41'2 3.3
2017-Jun-22 10:00N 47°07' W 003°39'2 3.2
2017-Jun-22 09:30N 47°07' W 003°37'2 3.2
2017-Jun-22 09:00N 47°09' W 003°35'2 3.5
2017-Jun-22 08:30N 47°10' W 003°37'2 3.4
2017-Jun-22 07:56N 47°10' W 003°40'2 1.7
2017-Jun-22 06:56N 47°08' W 003°40'2 3.7
2017-Jun-22 06:29N 47°09' W 003°37'1 2.5
2017-Jun-22 06:00N 47°10' W 003°37'2 3.0
2017-Jun-22 05:30N 47°11' W 003°37'2 3.6
2017-Jun-22 05:00N 47°13' W 003°36'2 3.7
2017-Jun-22 04:30N 47°15' W 003°36'2 3.7
2017-Jun-22 04:00N 47°17' W 003°35'4 7.1
2017-Jun-22 03:30N 47°20' W 003°33'4 8.9
2017-Jun-22 03:00N 47°24' W 003°31'4 8.6
2017-Jun-22 02:30N 47°28' W 003°28'4 8.7
2017-Jun-22 02:00N 47°32' W 003°25'4 8.8
2017-Jun-22 01:30N 47°36' W 003°23'5 9.1
2017-Jun-22 01:00N 47°40' W 003°22'3 6.4
2017-Jun-22 00:28N 47°44' W 003°22'0 0.0
2017-Jun-21 23:58N 47°44' W 003°22'4 7.8
2017-Jun-21 23:30N 47°41' W 003°25'4 7.5
2017-Jun-21 23:01N 47°40' W 003°30'5 8.9
2017-Jun-21 22:30N 47°37' W 003°36'4 8.7
2017-Jun-21 22:00N 47°35' W 003°41'4 8.5
2017-Jun-21 21:30N 47°32' W 003°46'4 7.2
2017-Jun-21 21:00N 47°30' W 003°50'1 2.5
2017-Jun-21 20:30N 47°29' W 003°51'2 3.7
2017-Jun-21 20:00N 47°27' W 003°51'2 3.6
2017-Jun-21 19:30N 47°25' W 003°52'2 3.7
2017-Jun-21 19:00N 47°24' W 003°53'2 3.6
2017-Jun-21 18:30N 47°22' W 003°54'2 3.4
2017-Jun-21 18:00N 47°20' W 003°53'2 4.1
2017-Jun-21 17:30N 47°18' W 003°53'1 2.6
2017-Jun-21 17:01N 47°17' W 003°53'2 3.4
2017-Jun-21 16:31N 47°15' W 003°52'2 3.2
2017-Jun-21 16:00N 47°14' W 003°53'2 3.5
2017-Jun-21 15:31N 47°13' W 003°50'2 3.2
2017-Jun-21 15:00N 47°12' W 003°48'2 3.6
2017-Jun-21 14:30N 47°12' W 003°45'2 1.7
2017-Jun-21 13:31N 47°13' W 003°48'2 3.6
2017-Jun-21 13:00N 47°13' W 003°50'2 3.4
2017-Jun-21 12:29N 47°14' W 003°52'2 3.6
2017-Jun-21 11:59N 47°13' W 003°55'2 3.2
2017-Jun-21 11:29N 47°12' W 003°55'2 3.4
2017-Jun-21 11:00N 47°12' W 003°52'1 1.9
2017-Jun-21 10:23N 47°13' W 003°51'1 3.5
2017-Jun-21 10:00N 47°12' W 003°49'1 2.1
2017-Jun-21 09:30N 47°14' W 003°49'2 3.5
2017-Jun-21 09:00N 47°14' W 003°51'2 3.5
2017-Jun-21 08:31N 47°14' W 003°54'2 3.2
2017-Jun-21 08:00N 47°16' W 003°54'2 3.6
2017-Jun-21 07:31N 47°18' W 003°55'2 3.2
2017-Jun-21 07:00N 47°19' W 003°55'2 3.4
2017-Jun-21 06:30N 47°21' W 003°54'2 3.6
2017-Jun-21 06:00N 47°23' W 003°54'2 3.7
2017-Jun-21 05:28N 47°24' W 003°52'2 3.6
2017-Jun-21 05:00N 47°26' W 003°51'2 3.7
2017-Jun-21 04:30N 47°28' W 003°51'2 3.8
2017-Jun-21 04:00N 47°30' W 003°51'3 6.9
2017-Jun-21 03:30N 47°32' W 003°48'5 9.0
2017-Jun-21 03:00N 47°35' W 003°42'5 9.2
2017-Jun-21 02:30N 47°37' W 003°36'5 9.1
2017-Jun-21 02:00N 47°40' W 003°31'4 8.8
2017-Jun-21 01:30N 47°41' W 003°24'3 5.7
2017-Jun-21 00:58N 47°44' W 003°22'0 0.4
2017-Jun-21 00:29N 47°44' W 003°22'0 0.4
2017-Jun-21 00:00N 47°44' W 003°22'4 7.8
2017-Jun-20 23:30N 47°41' W 003°25'4 9.0
2017-Jun-20 23:00N 47°40' W 003°32'5 9.0
2017-Jun-20 22:30N 47°37' W 003°37'4 8.7
2017-Jun-20 22:00N 47°34' W 003°43'4 8.7
2017-Jun-20 21:30N 47°32' W 003°48'4 7.1
2017-Jun-20 21:00N 47°29' W 003°51'1 2.4
2017-Jun-20 20:30N 47°28' W 003°51'2 3.6
2017-Jun-20 20:00N 47°26' W 003°52'2 3.7
2017-Jun-20 19:30N 47°24' W 003°53'2 3.7
2017-Jun-20 19:00N 47°22' W 003°53'2 3.7
2017-Jun-20 18:30N 47°21' W 003°54'2 3.7
2017-Jun-20 18:00N 47°19' W 003°54'2 4.6
2017-Jun-20 17:28N 47°17' W 003°51'1 2.7
2017-Jun-20 17:00N 47°16' W 003°51'2 3.4
2017-Jun-20 16:30N 47°15' W 003°52'1 3.0
2017-Jun-20 16:00N 47°14' W 003°51'2 3.2
2017-Jun-20 15:30N 47°13' W 003°49'2 2.9
2017-Jun-20 14:45N 47°14' W 003°46'2 3.1
2017-Jun-20 14:00N 47°15' W 003°48'2 3.6
2017-Jun-20 13:30N 47°17' W 003°49'2 3.7
2017-Jun-20 12:57N 47°19' W 003°51'2 3.7
2017-Jun-20 12:30N 47°20' W 003°52'2 3.7
2017-Jun-20 11:59N 47°21' W 003°54'2 3.8
2017-Jun-20 11:30N 47°22' W 003°56'2 4.4
2017-Jun-20 11:00N 47°24' W 003°57'0 1.0
2017-Jun-20 10:31N 47°24' W 003°58'2 3.4
2017-Jun-20 10:01N 47°23' W 003°56'2 3.6
2017-Jun-20 09:30N 47°22' W 003°54'2 3.3
2017-Jun-20 09:00N 47°20' W 003°53'2 3.5
2017-Jun-20 08:31N 47°19' W 003°51'2 3.6
2017-Jun-20 07:59N 47°17' W 003°52'2 3.3
2017-Jun-20 07:31N 47°18' W 003°53'2 3.8
2017-Jun-20 06:54N 47°20' W 003°54'2 3.4
2017-Jun-20 06:24N 47°22' W 003°54'1 3.4
2017-Jun-20 05:59N 47°23' W 003°54'2 3.5
2017-Jun-20 05:28N 47°25' W 003°52'2 3.6
2017-Jun-20 05:00N 47°26' W 003°51'2 3.7
2017-Jun-20 04:30N 47°28' W 003°51'2 3.7
2017-Jun-20 04:00N 47°30' W 003°51'3 6.2
2017-Jun-20 03:30N 47°32' W 003°48'5 8.9
2017-Jun-20 03:00N 47°35' W 003°42'5 9.2
2017-Jun-20 02:30N 47°37' W 003°37'5 9.2
2017-Jun-20 02:00N 47°40' W 003°31'4 9.0
2017-Jun-20 01:30N 47°41' W 003°25'3 6.5
2017-Jun-20 01:00N 47°44' W 003°22'0 0.1
2017-Jun-20 00:30N 47°44' W 003°22'0 0.0
2017-Jun-20 00:00N 47°44' W 003°22'3 6.4
2017-Jun-19 23:30N 47°41' W 003°24'4 8.5
2017-Jun-19 23:00N 47°40' W 003°30'4 8.6
2017-Jun-19 22:30N 47°37' W 003°36'4 8.6
2017-Jun-19 22:00N 47°35' W 003°41'4 8.5
2017-Jun-19 21:30N 47°32' W 003°46'4 7.9
2017-Jun-19 21:00N 47°30' W 003°50'2 3.1
2017-Jun-19 20:30N 47°28' W 003°51'2 3.6
2017-Jun-19 20:00N 47°27' W 003°52'2 3.6
2017-Jun-19 19:30N 47°25' W 003°53'2 3.6
2017-Jun-19 19:00N 47°23' W 003°53'2 3.5
2017-Jun-19 18:30N 47°21' W 003°53'2 3.6
2017-Jun-19 18:00N 47°20' W 003°52'2 4.3
2017-Jun-19 17:30N 47°18' W 003°51'3 3.1
2017-Jun-19 16:34N 47°16' W 003°48'1 3.4
2017-Jun-19 16:19N 47°15' W 003°47'1 3.2
2017-Jun-19 15:56N 47°14' W 003°48'3 3.0
2017-Jun-19 14:55N 47°16' W 003°51'3 1.9
2017-Jun-19 13:09N 47°20' W 003°51'1 3.6
2017-Jun-19 12:51N 47°21' W 003°52'2 3.4
2017-Jun-19 12:21N 47°21' W 003°54'0 0.1
2017-Jun-19 09:36N 47°21' W 003°54'1 3.7
2017-Jun-19 09:26N 47°21' W 003°55'3 1.5
2017-Jun-19 07:39N 47°19' W 003°52'1 3.9
2017-Jun-19 07:23N 47°20' W 003°53'3 2.9
2017-Jun-19 06:30N 47°23' W 003°54'2 3.5
2017-Jun-19 05:59N 47°24' W 003°53'2 3.6
2017-Jun-19 05:30N 47°26' W 003°52'2 3.6
2017-Jun-19 05:00N 47°28' W 003°51'2 3.7
2017-Jun-19 04:30N 47°29' W 003°51'24 0.5
2017-Jun-17 00:31N 47°44' W 003°22'0 0.0
2017-Jun-17 00:29N 47°44' W 003°22'0 0.2
2017-Jun-16 23:59N 47°44' W 003°22'0 0.0
2017-Jun-16 23:29N 47°44' W 003°22'0 0.0
2017-Jun-16 22:59N 47°44' W 003°22'0 0.2
2017-Jun-16 22:30N 47°44' W 003°22'4 7.3
2017-Jun-16 22:00N 47°41' W 003°25'4 8.7
2017-Jun-16 21:30N 47°40' W 003°32'4 8.7
2017-Jun-16 21:00N 47°40' W 003°38'3 5.6
2017-Jun-16 20:30N 47°39' W 003°42'2 3.6
2017-Jun-16 20:00N 47°37' W 003°44'2 3.6
2017-Jun-16 19:30N 47°36' W 003°46'2 3.5
2017-Jun-16 19:00N 47°35' W 003°47'2 3.5
2017-Jun-16 18:30N 47°33' W 003°48'2 3.6
2017-Jun-16 18:00N 47°32' W 003°49'2 3.6
2017-Jun-16 17:30N 47°30' W 003°51'2 4.5
2017-Jun-16 16:59N 47°29' W 003°54'2 3.1
2017-Jun-16 16:30N 47°27' W 003°53'2 3.5
2017-Jun-16 16:00N 47°25' W 003°53'2 3.6
2017-Jun-16 15:30N 47°24' W 003°53'2 3.6
2017-Jun-16 15:00N 47°22' W 003°54'2 3.5
2017-Jun-16 14:30N 47°20' W 003°54'4 3.4
2017-Jun-16 13:27N 47°17' W 003°52'2 2.5
2017-Jun-16 12:29N 47°19' W 003°51'2 3.5
2017-Jun-16 11:58N 47°20' W 003°53'  
Track history (hours):
 
Tides and Currents Weather Stations Pressure Air Temp Water Temp Dewpoint Dewpoint Depression Visibility Wind Speed Wind Dir Waves Ship Positions

F/V Cote D'ambre

Last reported at 2017-Jun-26 11:40 UTC. Time now 2017-Jun-27 08:55 UTC.
Position N 47°44' W 003°22'.

Length 16 m; draft 4 m.

Type: Fishing. MMSI: 227128800.

Date/timePositionNaut miles runAvg speedWind from/ knotsBaromVisibWave heightAir tempDewpointWater temp
2017-Jun-26 11:40N 47°44' W 003°22'0 0.0
2017-Jun-26 11:28N 47°44' W 003°22'0 0.0
2017-Jun-26 10:58N 47°44' W 003°22'0 0.3
2017-Jun-26 10:28N 47°44' W 003°22'0 0.3
2017-Jun-26 09:58N 47°44' W 003°22'0 0.0
2017-Jun-26 09:28N 47°44' W 003°22'0 0.0
2017-Jun-26 08:58N 47°44' W 003°22'0 0.0
2017-Jun-26 08:28N 47°44' W 003°22'0 0.0
2017-Jun-26 07:59N 47°44' W 003°22'0 0.6
2017-Jun-26 07:30N 47°43' W 003°22'0 0.6
2017-Jun-26 07:01N 47°44' W 003°22'0 0.1
2017-Jun-26 06:28N 47°44' W 003°22'0 0.0
2017-Jun-26 05:58N 47°44' W 003°22'0 0.0
2017-Jun-26 05:28N 47°44' W 003°22'0 0.0
2017-Jun-26 04:58N 47°44' W 003°22'0 0.0
2017-Jun-26 04:28N 47°44' W 003°22'0 0.0
2017-Jun-26 03:58N 47°44' W 003°22'0 0.0
2017-Jun-26 03:28N 47°44' W 003°22'0 0.0
2017-Jun-26 02:58N 47°44' W 003°22'0 0.0
2017-Jun-26 02:28N 47°44' W 003°22'0 0.0
2017-Jun-26 01:58N 47°44' W 003°22'0 0.0
2017-Jun-26 01:28N 47°44' W 003°22'0 0.0
2017-Jun-26 00:58N 47°44' W 003°22'2 4.6
2017-Jun-26 00:30N 47°42' W 003°22'4 7.8
2017-Jun-26 00:00N 47°38' W 003°22'4 7.5
2017-Jun-25 23:30N 47°34' W 003°23'4 7.3
2017-Jun-25 23:00N 47°31' W 003°26'4 7.3
2017-Jun-25 22:30N 47°27' W 003°28'3 6.9
2017-Jun-25 22:00N 47°24' W 003°30'3 6.8
2017-Jun-25 21:30N 47°21' W 003°32'2 3.3
2017-Jun-25 21:00N 47°20' W 003°33'1 2.6
2017-Jun-25 20:30N 47°20' W 003°35'2 3.0
2017-Jun-25 20:00N 47°18' W 003°36'2 3.2
2017-Jun-25 19:29N 47°17' W 003°35'1 3.1
2017-Jun-25 19:00N 47°15' W 003°35'2 3.2
2017-Jun-25 18:30N 47°14' W 003°34'2 2.8
2017-Jun-25 17:55N 47°12' W 003°34'1 3.1
2017-Jun-25 17:30N 47°11' W 003°33'2 3.1
2017-Jun-25 16:58N 47°10' W 003°31'1 3.1
2017-Jun-25 16:30N 47°08' W 003°31'2 3.2
2017-Jun-25 16:00N 47°06' W 003°32'2 3.4
2017-Jun-25 15:30N 47°05' W 003°30'2 5.0
2017-Jun-25 15:00N 47°03' W 003°28'3 2.6
2017-Jun-25 13:59N 47°01' W 003°25'1 3.1
2017-Jun-25 13:30N 47°01' W 003°23'2 3.0
2017-Jun-25 13:00N 46°60' W 003°22'2 3.5
2017-Jun-25 12:30N 46°58' W 003°21'2 3.6
2017-Jun-25 12:00N 46°57' W 003°20'2 3.4
2017-Jun-25 11:30N 46°56' W 003°18'1 1.3
2017-Jun-25 10:59N 46°55' W 003°18'2 3.6
2017-Jun-25 10:30N 46°53' W 003°18'2 3.4
2017-Jun-25 09:58N 46°51' W 003°18'2 3.4
2017-Jun-25 09:30N 46°50' W 003°18'1 1.5
2017-Jun-25 09:00N 46°50' W 003°17'1 2.9
2017-Jun-25 08:29N 46°51' W 003°18'1 3.1
2017-Jun-25 08:00N 46°51' W 003°21'2 3.6
2017-Jun-25 07:30N 46°51' W 003°23'1 1.0
2017-Jun-25 07:00N 46°51' W 003°23'2 3.5
2017-Jun-25 06:26N 46°51' W 003°20'2 3.4
2017-Jun-25 05:57N 46°51' W 003°17'2 3.0
2017-Jun-25 05:22N 46°50' W 003°15'2 3.0
2017-Jun-25 04:38N 46°50' W 003°12'1 3.0
2017-Jun-25 04:17N 46°49' W 003°12'1 3.4
2017-Jun-25 04:00N 46°48' W 003°13'24 1.1
2017-Jun-24 06:17N 47°11' W 003°24'1 3.8
2017-Jun-24 06:00N 47°12' W 003°25'3 5.4
2017-Jun-24 05:30N 47°15' W 003°25'4 8.6
2017-Jun-24 05:00N 47°19' W 003°24'4 8.5
2017-Jun-24 04:30N 47°23' W 003°24'4 8.2
2017-Jun-24 04:00N 47°27' W 003°23'4 8.3
2017-Jun-24 03:30N 47°31' W 003°23'4 8.3
2017-Jun-24 03:00N 47°36' W 003°22'4 8.7
2017-Jun-24 02:30N 47°40' W 003°22'4 7.2
2017-Jun-24 01:59N 47°44' W 003°22'0 0.1
2017-Jun-24 01:29N 47°44' W 003°22'0 0.3
2017-Jun-24 00:58N 47°44' W 003°22'0 0.0
2017-Jun-24 00:26N 47°44' W 003°22'3 7.5
2017-Jun-24 00:00N 47°41' W 003°22'4 8.7
2017-Jun-23 23:30N 47°36' W 003°22'4 8.9
2017-Jun-23 23:00N 47°32' W 003°26'4 8.7
2017-Jun-23 22:30N 47°29' W 003°29'4 8.5
2017-Jun-23 22:00N 47°25' W 003°33'4 8.5
2017-Jun-23 21:30N 47°22' W 003°37'2 1.9
2017-Jun-23 20:22N 47°20' W 003°36'1 2.7
2017-Jun-23 20:00N 47°19' W 003°36'2 3.1
2017-Jun-23 19:30N 47°17' W 003°36'2 3.2
2017-Jun-23 19:01N 47°16' W 003°37'2 3.1
2017-Jun-23 18:29N 47°14' W 003°37'2 3.1
2017-Jun-23 17:58N 47°13' W 003°38'4 1.6
2017-Jun-23 15:31N 47°09' W 003°37'1 2.1
2017-Jun-23 15:02N 47°09' W 003°35'1 3.1
2017-Jun-23 14:46N 47°09' W 003°36'1 3.6
2017-Jun-23 14:23N 47°09' W 003°38'0 0.1
2017-Jun-23 12:03N 47°09' W 003°38'2 3.0
2017-Jun-23 11:29N 47°08' W 003°40'2 0.9
2017-Jun-23 09:09N 47°07' W 003°38'2 1.0
2017-Jun-23 06:35N 47°10' W 003°36'3 3.5
2017-Jun-23 05:47N 47°12' W 003°36'1 3.6
2017-Jun-23 05:29N 47°13' W 003°36'2 3.6
2017-Jun-23 05:00N 47°15' W 003°36'2 4.5
2017-Jun-23 04:30N 47°17' W 003°35'4 8.5
2017-Jun-23 04:00N 47°21' W 003°32'4 8.0
2017-Jun-23 03:30N 47°25' W 003°30'4 8.1
2017-Jun-23 03:00N 47°28' W 003°27'4 8.3
2017-Jun-23 02:30N 47°32' W 003°24'4 8.4
2017-Jun-23 02:00N 47°36' W 003°22'4 9.0
2017-Jun-23 01:30N 47°41' W 003°22'3 6.1
2017-Jun-23 01:00N 47°44' W 003°22'0 0.0
2017-Jun-23 00:30N 47°44' W 003°22'4 7.8
2017-Jun-23 00:00N 47°40' W 003°22'4 8.5
2017-Jun-22 23:30N 47°36' W 003°22'4 8.7
2017-Jun-22 23:00N 47°32' W 003°25'4 8.3
2017-Jun-22 22:30N 47°28' W 003°28'4 8.1
2017-Jun-22 22:01N 47°24' W 003°30'4 8.0
2017-Jun-22 21:30N 47°21' W 003°33'3 4.9
2017-Jun-22 20:59N 47°19' W 003°35'2 2.6
2017-Jun-22 20:24N 47°17' W 003°35'1 3.4
2017-Jun-22 20:01N 47°16' W 003°36'2 3.3
2017-Jun-22 19:29N 47°15' W 003°37'2 3.4
2017-Jun-22 19:01N 47°13' W 003°38'2 3.4
2017-Jun-22 18:30N 47°11' W 003°39'2 3.1
2017-Jun-22 18:01N 47°10' W 003°38'1 2.6
2017-Jun-22 17:29N 47°09' W 003°38'1 2.5
2017-Jun-22 17:00N 47°09' W 003°40'2 3.3
2017-Jun-22 16:30N 47°09' W 003°42'1 2.5
2017-Jun-22 16:00N 47°08' W 003°41'2 3.3
2017-Jun-22 15:30N 47°07' W 003°39'1 2.9
2017-Jun-22 15:00N 47°08' W 003°37'1 3.0
2017-Jun-22 14:30N 47°09' W 003°39'2 0.8
2017-Jun-22 12:25N 47°08' W 003°39'2 3.4
2017-Jun-22 11:53N 47°09' W 003°39'1 3.7
2017-Jun-22 11:30N 47°10' W 003°41'2 2.8
2017-Jun-22 10:57N 47°08' W 003°43'1 1.8
2017-Jun-22 10:30N 47°08' W 003°41'2 3.3
2017-Jun-22 10:00N 47°07' W 003°39'2 3.2
2017-Jun-22 09:30N 47°07' W 003°37'2 3.2
2017-Jun-22 09:00N 47°09' W 003°35'2 3.5
2017-Jun-22 08:30N 47°10' W 003°37'2 3.4
2017-Jun-22 07:56N 47°10' W 003°40'2 1.7
2017-Jun-22 06:56N 47°08' W 003°40'2 3.7
2017-Jun-22 06:29N 47°09' W 003°37'1 2.5
2017-Jun-22 06:00N 47°10' W 003°37'2 3.0
2017-Jun-22 05:30N 47°11' W 003°37'2 3.6
2017-Jun-22 05:00N 47°13' W 003°36'2 3.7
2017-Jun-22 04:30N 47°15' W 003°36'2 3.7
2017-Jun-22 04:00N 47°17' W 003°35'4 7.1
2017-Jun-22 03:30N 47°20' W 003°33'4 8.9
2017-Jun-22 03:00N 47°24' W 003°31'4 8.6
2017-Jun-22 02:30N 47°28' W 003°28'4 8.7
2017-Jun-22 02:00N 47°32' W 003°25'4 8.8
2017-Jun-22 01:30N 47°36' W 003°23'5 9.1
2017-Jun-22 01:00N 47°40' W 003°22'3 6.4
2017-Jun-22 00:28N 47°44' W 003°22'0 0.0
2017-Jun-21 23:58N 47°44' W 003°22'4 7.8
2017-Jun-21 23:30N 47°41' W 003°25'4 7.5
2017-Jun-21 23:01N 47°40' W 003°30'5 8.9
2017-Jun-21 22:30N 47°37' W 003°36'4 8.7
2017-Jun-21 22:00N 47°35' W 003°41'4 8.5
2017-Jun-21 21:30N 47°32' W 003°46'4 7.2
2017-Jun-21 21:00N 47°30' W 003°50'1 2.5
2017-Jun-21 20:30N 47°29' W 003°51'2 3.7
2017-Jun-21 20:00N 47°27' W 003°51'2 3.6
2017-Jun-21 19:30N 47°25' W 003°52'2 3.7
2017-Jun-21 19:00N 47°24' W 003°53'2 3.6
2017-Jun-21 18:30N 47°22' W 003°54'2 3.4
2017-Jun-21 18:00N 47°20' W 003°53'2 4.1
2017-Jun-21 17:30N 47°18' W 003°53'1 2.6
2017-Jun-21 17:01N 47°17' W 003°53'2 3.4
2017-Jun-21 16:31N 47°15' W 003°52'2 3.2
2017-Jun-21 16:00N 47°14' W 003°53'2 3.5
2017-Jun-21 15:31N 47°13' W 003°50'2 3.2
2017-Jun-21 15:00N 47°12' W 003°48'2 3.6
2017-Jun-21 14:30N 47°12' W 003°45'2 1.7
2017-Jun-21 13:31N 47°13' W 003°48'2 3.6
2017-Jun-21 13:00N 47°13' W 003°50'2 3.4
2017-Jun-21 12:29N 47°14' W 003°52'2 3.6
2017-Jun-21 11:59N 47°13' W 003°55'2 3.2
2017-Jun-21 11:29N 47°12' W 003°55'2 3.4
2017-Jun-21 11:00N 47°12' W 003°52'1 1.9
2017-Jun-21 10:23N 47°13' W 003°51'1 3.5
2017-Jun-21 10:00N 47°12' W 003°49'1 2.1
2017-Jun-21 09:30N 47°14' W 003°49'2 3.5
2017-Jun-21 09:00N 47°14' W 003°51'2 3.5
2017-Jun-21 08:31N 47°14' W 003°54'2 3.2
2017-Jun-21 08:00N 47°16' W 003°54'2 3.6
2017-Jun-21 07:31N 47°18' W 003°55'2 3.2
2017-Jun-21 07:00N 47°19' W 003°55'2 3.4
2017-Jun-21 06:30N 47°21' W 003°54'2 3.6
2017-Jun-21 06:00N 47°23' W 003°54'2 3.7
2017-Jun-21 05:28N 47°24' W 003°52'2 3.6
2017-Jun-21 05:00N 47°26' W 003°51'2 3.7
2017-Jun-21 04:30N 47°28' W 003°51'2 3.8
2017-Jun-21 04:00N 47°30' W 003°51'3 6.9
2017-Jun-21 03:30N 47°32' W 003°48'5 9.0
2017-Jun-21 03:00N 47°35' W 003°42'5 9.2
2017-Jun-21 02:30N 47°37' W 003°36'5 9.1
2017-Jun-21 02:00N 47°40' W 003°31'4 8.8
2017-Jun-21 01:30N 47°41' W 003°24'3 5.7
2017-Jun-21 00:58N 47°44' W 003°22'0 0.4
2017-Jun-21 00:29N 47°44' W 003°22'0 0.4
2017-Jun-21 00:00N 47°44' W 003°22'4 7.8
2017-Jun-20 23:30N 47°41' W 003°25'4 9.0
2017-Jun-20 23:00N 47°40' W 003°32'5 9.0
2017-Jun-20 22:30N 47°37' W 003°37'4 8.7
2017-Jun-20 22:00N 47°34' W 003°43'4 8.7
2017-Jun-20 21:30N 47°32' W 003°48'4 7.1
2017-Jun-20 21:00N 47°29' W 003°51'1 2.4
2017-Jun-20 20:30N 47°28' W 003°51'2 3.6
2017-Jun-20 20:00N 47°26' W 003°52'2 3.7
2017-Jun-20 19:30N 47°24' W 003°53'2 3.7
2017-Jun-20 19:00N 47°22' W 003°53'2 3.7
2017-Jun-20 18:30N 47°21' W 003°54'2 3.7
2017-Jun-20 18:00N 47°19' W 003°54'2 4.6
2017-Jun-20 17:28N 47°17' W 003°51'1 2.7
2017-Jun-20 17:00N 47°16' W 003°51'2 3.4
2017-Jun-20 16:30N 47°15' W 003°52'1 3.0
2017-Jun-20 16:00N 47°14' W 003°51'2 3.2
2017-Jun-20 15:30N 47°13' W 003°49'2 2.9
2017-Jun-20 14:45N 47°14' W 003°46'2 3.1
2017-Jun-20 14:00N 47°15' W 003°48'2 3.6
2017-Jun-20 13:30N 47°17' W 003°49'2 3.7
2017-Jun-20 12:57N 47°19' W 003°51'2 3.7
2017-Jun-20 12:30N 47°20' W 003°52'2 3.7
2017-Jun-20 11:59N 47°21' W 003°54'2 3.8
2017-Jun-20 11:30N 47°22' W 003°56'2 4.4
2017-Jun-20 11:00N 47°24' W 003°57'0 1.0
2017-Jun-20 10:31N 47°24' W 003°58'2 3.4
2017-Jun-20 10:01N 47°23' W 003°56'2 3.6
2017-Jun-20 09:30N 47°22' W 003°54'2 3.3
2017-Jun-20 09:00N 47°20' W 003°53'2 3.5
2017-Jun-20 08:31N 47°19' W 003°51'2 3.6
2017-Jun-20 07:59N 47°17' W 003°52'2 3.3
2017-Jun-20 07:31N 47°18' W 003°53'2 3.8
2017-Jun-20 06:54N 47°20' W 003°54'2 3.4
2017-Jun-20 06:24N 47°22' W 003°54'1 3.4
2017-Jun-20 05:59N 47°23' W 003°54'2 3.5
2017-Jun-20 05:28N 47°25' W 003°52'2 3.6
2017-Jun-20 05:00N 47°26' W 003°51'2 3.7
2017-Jun-20 04:30N 47°28' W 003°51'2 3.7
2017-Jun-20 04:00N 47°30' W 003°51'3 6.2
2017-Jun-20 03:30N 47°32' W 003°48'5 8.9
2017-Jun-20 03:00N 47°35' W 003°42'5 9.2
2017-Jun-20 02:30N 47°37' W 003°37'5 9.2
2017-Jun-20 02:00N 47°40' W 003°31'4 9.0
2017-Jun-20 01:30N 47°41' W 003°25'3 6.5
2017-Jun-20 01:00N 47°44' W 003°22'0 0.1
2017-Jun-20 00:30N 47°44' W 003°22'0 0.0
2017-Jun-20 00:00N 47°44' W 003°22'3 6.4
2017-Jun-19 23:30N 47°41' W 003°24'4 8.5
2017-Jun-19 23:00N 47°40' W 003°30'4 8.6
2017-Jun-19 22:30N 47°37' W 003°36'4 8.6
2017-Jun-19 22:00N 47°35' W 003°41'4 8.5
2017-Jun-19 21:30N 47°32' W 003°46'4 7.9
2017-Jun-19 21:00N 47°30' W 003°50'2 3.1
2017-Jun-19 20:30N 47°28' W 003°51'2 3.6
2017-Jun-19 20:00N 47°27' W 003°52'2 3.6
2017-Jun-19 19:30N 47°25' W 003°53'2 3.6
2017-Jun-19 19:00N 47°23' W 003°53'2 3.5
2017-Jun-19 18:30N 47°21' W 003°53'2 3.6
2017-Jun-19 18:00N 47°20' W 003°52'2 4.3
2017-Jun-19 17:30N 47°18' W 003°51'3 3.1
2017-Jun-19 16:34N 47°16' W 003°48'1 3.4
2017-Jun-19 16:19N 47°15' W 003°47'1 3.2
2017-Jun-19 15:56N 47°14' W 003°48'3 3.0
2017-Jun-19 14:55N 47°16' W 003°51'3 1.9
2017-Jun-19 13:09N 47°20' W 003°51'1 3.6
2017-Jun-19 12:51N 47°21' W 003°52'2 3.4
2017-Jun-19 12:21N 47°21' W 003°54'0 0.1
2017-Jun-19 09:36N 47°21' W 003°54'1 3.7
2017-Jun-19 09:26N 47°21' W 003°55'3 1.5
2017-Jun-19 07:39N 47°19' W 003°52'1 3.9
2017-Jun-19 07:23N 47°20' W 003°53'3 2.9
2017-Jun-19 06:30N 47°23' W 003°54'2 3.5
2017-Jun-19 05:59N 47°24' W 003°53'2 3.6
2017-Jun-19 05:30N 47°26' W 003°52'2 3.6
2017-Jun-19 05:00N 47°28' W 003°51'2 3.7
2017-Jun-19 04:30N 47°29' W 003°51'24 0.5
2017-Jun-17 00:31N 47°44' W 003°22'0 0.0
2017-Jun-17 00:29N 47°44' W 003°22'0 0.2
2017-Jun-16 23:59N 47°44' W 003°22'0 0.0
2017-Jun-16 23:29N 47°44' W 003°22'0 0.0
2017-Jun-16 22:59N 47°44' W 003°22'0 0.2
2017-Jun-16 22:30N 47°44' W 003°22'4 7.3
2017-Jun-16 22:00N 47°41' W 003°25'4 8.7
2017-Jun-16 21:30N 47°40' W 003°32'4 8.7
2017-Jun-16 21:00N 47°40' W 003°38'3 5.6
2017-Jun-16 20:30N 47°39' W 003°42'2 3.6
2017-Jun-16 20:00N 47°37' W 003°44'2 3.6
2017-Jun-16 19:30N 47°36' W 003°46'2 3.5
2017-Jun-16 19:00N 47°35' W 003°47'2 3.5
2017-Jun-16 18:30N 47°33' W 003°48'2 3.6
2017-Jun-16 18:00N 47°32' W 003°49'2 3.6
2017-Jun-16 17:30N 47°30' W 003°51'2 4.5
2017-Jun-16 16:59N 47°29' W 003°54'2 3.1
2017-Jun-16 16:30N 47°27' W 003°53'2 3.5
2017-Jun-16 16:00N 47°25' W 003°53'2 3.6
2017-Jun-16 15:30N 47°24' W 003°53'2 3.6
2017-Jun-16 15:00N 47°22' W 003°54'2 3.5
2017-Jun-16 14:30N 47°20' W 003°54'4 3.4
2017-Jun-16 13:27N 47°17' W 003°52'2 2.5
2017-Jun-16 12:29N 47°19' W 003°51'2 3.5
2017-Jun-16 11:58N 47°20' W 003°53'  

Dump ship's entire track history